sensor_id;sensor_type;location;lat;lon;timestamp;P1;durP1;ratioP1;P2;durP2;ratioP2
38843;SDS011;24596;48.080;8.362;2023-02-28T00:01:17;7.95;;;3.53;;
38843;SDS011;24596;48.080;8.362;2023-02-28T00:03:42;8.85;;;3.67;;
38843;SDS011;24596;48.080;8.362;2023-02-28T00:06:07;7.25;;;3.40;;
38843;SDS011;24596;48.080;8.362;2023-02-28T00:08:34;7.05;;;3.58;;
38843;SDS011;24596;48.080;8.362;2023-02-28T00:11:03;9.68;;;3.63;;
38843;SDS011;24596;48.080;8.362;2023-02-28T00:13:29;9.55;;;4.47;;
38843;SDS011;24596;48.080;8.362;2023-02-28T00:16:08;9.73;;;4.10;;
38843;SDS011;24596;48.080;8.362;2023-02-28T00:18:34;9.23;;;4.90;;
38843;SDS011;24596;48.080;8.362;2023-02-28T00:20:59;11.73;;;4.90;;
38843;SDS011;24596;48.080;8.362;2023-02-28T00:23:25;9.85;;;4.30;;
38843;SDS011;24596;48.080;8.362;2023-02-28T00:25:50;7.93;;;4.30;;
38843;SDS011;24596;48.080;8.362;2023-02-28T00:28:15;9.07;;;4.07;;
38843;SDS011;24596;48.080;8.362;2023-02-28T00:30:41;8.82;;;3.65;;
38843;SDS011;24596;48.080;8.362;2023-02-28T00:33:06;8.65;;;3.83;;
38843;SDS011;24596;48.080;8.362;2023-02-28T00:35:31;7.90;;;4.20;;
38843;SDS011;24596;48.080;8.362;2023-02-28T00:37:56;6.95;;;4.18;;
38843;SDS011;24596;48.080;8.362;2023-02-28T00:40:22;9.45;;;4.22;;
38843;SDS011;24596;48.080;8.362;2023-02-28T00:42:47;9.27;;;4.20;;
38843;SDS011;24596;48.080;8.362;2023-02-28T00:45:12;8.77;;;4.32;;
38843;SDS011;24596;48.080;8.362;2023-02-28T00:47:37;10.65;;;4.38;;
38843;SDS011;24596;48.080;8.362;2023-02-28T00:50:03;7.43;;;3.92;;
38843;SDS011;24596;48.080;8.362;2023-02-28T00:52:28;8.98;;;4.45;;
38843;SDS011;24596;48.080;8.362;2023-02-28T00:54:54;8.43;;;4.50;;
38843;SDS011;24596;48.080;8.362;2023-02-28T00:57:19;8.95;;;4.57;;
38843;SDS011;24596;48.080;8.362;2023-02-28T00:59:44;9.70;;;4.82;;
38843;SDS011;24596;48.080;8.362;2023-02-28T01:02:09;8.02;;;4.00;;
38843;SDS011;24596;48.080;8.362;2023-02-28T01:04:35;11.00;;;5.03;;
38843;SDS011;24596;48.080;8.362;2023-02-28T01:07:00;9.52;;;4.50;;
38843;SDS011;24596;48.080;8.362;2023-02-28T01:09:25;8.30;;;4.50;;
38843;SDS011;24596;48.080;8.362;2023-02-28T01:11:50;9.68;;;4.80;;
38843;SDS011;24596;48.080;8.362;2023-02-28T01:14:16;9.57;;;4.22;;
38843;SDS011;24596;48.080;8.362;2023-02-28T01:16:41;10.27;;;5.28;;
38843;SDS011;24596;48.080;8.362;2023-02-28T01:19:07;10.60;;;4.95;;
38843;SDS011;24596;48.080;8.362;2023-02-28T01:21:32;8.93;;;4.43;;
38843;SDS011;24596;48.080;8.362;2023-02-28T01:23:58;8.43;;;4.78;;
38843;SDS011;24596;48.080;8.362;2023-02-28T01:26:23;8.85;;;4.35;;
38843;SDS011;24596;48.080;8.362;2023-02-28T01:28:49;8.95;;;5.07;;
38843;SDS011;24596;48.080;8.362;2023-02-28T01:31:15;8.90;;;4.47;;
38843;SDS011;24596;48.080;8.362;2023-02-28T01:33:40;8.43;;;4.28;;
38843;SDS011;24596;48.080;8.362;2023-02-28T01:36:08;10.40;;;4.93;;
38843;SDS011;24596;48.080;8.362;2023-02-28T01:38:34;7.65;;;3.97;;
38843;SDS011;24596;48.080;8.362;2023-02-28T01:40:59;13.98;;;5.00;;
38843;SDS011;24596;48.080;8.362;2023-02-28T01:43:28;10.40;;;4.60;;
38843;SDS011;24596;48.080;8.362;2023-02-28T01:45:54;11.73;;;4.57;;
38843;SDS011;24596;48.080;8.362;2023-02-28T01:48:21;9.27;;;4.50;;
38843;SDS011;24596;48.080;8.362;2023-02-28T01:50:48;8.95;;;4.28;;
38843;SDS011;24596;48.080;8.362;2023-02-28T01:53:15;9.43;;;3.85;;
38843;SDS011;24596;48.080;8.362;2023-02-28T01:55:42;8.60;;;4.68;;
38843;SDS011;24596;48.080;8.362;2023-02-28T01:58:09;9.77;;;4.45;;
38843;SDS011;24596;48.080;8.362;2023-02-28T02:00:35;12.63;;;4.00;;
38843;SDS011;24596;48.080;8.362;2023-02-28T02:03:05;9.82;;;4.53;;
38843;SDS011;24596;48.080;8.362;2023-02-28T02:05:31;8.40;;;4.45;;
38843;SDS011;24596;48.080;8.362;2023-02-28T02:07:57;8.43;;;4.35;;
38843;SDS011;24596;48.080;8.362;2023-02-28T02:10:46;11.43;;;4.65;;
38843;SDS011;24596;48.080;8.362;2023-02-28T02:26:21;9.40;;;4.60;;
38843;SDS011;24596;48.080;8.362;2023-02-28T02:28:57;10.50;;;4.43;;
38843;SDS011;24596;48.080;8.362;2023-02-28T02:36:33;8.05;;;4.90;;
38843;SDS011;24596;48.080;8.362;2023-02-28T02:43:51;9.15;;;4.90;;
38843;SDS011;24596;48.080;8.362;2023-02-28T02:46:24;9.55;;;4.80;;
38843;SDS011;24596;48.080;8.362;2023-02-28T02:48:51;10.23;;;4.60;;
38843;SDS011;24596;48.080;8.362;2023-02-28T02:51:20;10.02;;;4.35;;
38843;SDS011;24596;48.080;8.362;2023-02-28T02:53:51;11.85;;;5.75;;
38843;SDS011;24596;48.080;8.362;2023-02-28T02:56:18;8.82;;;4.70;;
38843;SDS011;24596;48.080;8.362;2023-02-28T02:58:44;9.63;;;4.50;;
38843;SDS011;24596;48.080;8.362;2023-02-28T03:01:12;8.68;;;5.22;;
38843;SDS011;24596;48.080;8.362;2023-02-28T03:03:38;9.13;;;4.88;;
38843;SDS011;24596;48.080;8.362;2023-02-28T03:06:03;10.85;;;5.45;;
38843;SDS011;24596;48.080;8.362;2023-02-28T03:08:33;9.15;;;5.10;;
38843;SDS011;24596;48.080;8.362;2023-02-28T03:10:59;12.15;;;5.38;;
38843;SDS011;24596;48.080;8.362;2023-02-28T03:16:05;9.80;;;4.73;;
38843;SDS011;24596;48.080;8.362;2023-02-28T03:18:36;8.98;;;4.88;;
38843;SDS011;24596;48.080;8.362;2023-02-28T03:21:14;8.80;;;4.90;;
38843;SDS011;24596;48.080;8.362;2023-02-28T03:24:05;8.10;;;5.40;;
38843;SDS011;24596;48.080;8.362;2023-02-28T03:26:29;10.38;;;5.10;;
38843;SDS011;24596;48.080;8.362;2023-02-28T03:29:08;9.27;;;5.07;;
38843;SDS011;24596;48.080;8.362;2023-02-28T03:31:41;10.18;;;4.53;;
38843;SDS011;24596;48.080;8.362;2023-02-28T03:34:14;10.48;;;5.65;;
38843;SDS011;24596;48.080;8.362;2023-02-28T03:36:43;9.63;;;5.10;;
38843;SDS011;24596;48.080;8.362;2023-02-28T03:39:31;11.50;;;5.25;;
38843;SDS011;24596;48.080;8.362;2023-02-28T03:42:18;8.82;;;4.63;;
38843;SDS011;24596;48.080;8.362;2023-02-28T03:44:48;13.38;;;5.90;;
38843;SDS011;24596;48.080;8.362;2023-02-28T03:47:21;8.38;;;4.90;;
38843;SDS011;24596;48.080;8.362;2023-02-28T03:49:58;15.18;;;6.05;;
38843;SDS011;24596;48.080;8.362;2023-02-28T03:52:27;10.80;;;5.20;;
38843;SDS011;24596;48.080;8.362;2023-02-28T03:54:54;10.05;;;5.10;;
38843;SDS011;24596;48.080;8.362;2023-02-28T04:00:05;11.07;;;5.10;;
38843;SDS011;24596;48.080;8.362;2023-02-28T04:02:32;11.00;;;5.10;;
38843;SDS011;24596;48.080;8.362;2023-02-28T04:04:57;11.35;;;5.47;;
38843;SDS011;24596;48.080;8.362;2023-02-28T04:07:23;10.48;;;5.32;;
38843;SDS011;24596;48.080;8.362;2023-02-28T04:09:48;12.38;;;5.38;;
38843;SDS011;24596;48.080;8.362;2023-02-28T04:12:14;12.35;;;5.53;;
38843;SDS011;24596;48.080;8.362;2023-02-28T04:14:39;10.02;;;5.25;;
38843;SDS011;24596;48.080;8.362;2023-02-28T04:17:04;11.73;;;5.53;;
38843;SDS011;24596;48.080;8.362;2023-02-28T04:19:29;9.23;;;4.85;;
38843;SDS011;24596;48.080;8.362;2023-02-28T04:21:54;9.80;;;5.10;;
38843;SDS011;24596;48.080;8.362;2023-02-28T04:24:21;9.40;;;5.50;;
38843;SDS011;24596;48.080;8.362;2023-02-28T04:26:47;8.73;;;5.00;;
38843;SDS011;24596;48.080;8.362;2023-02-28T04:29:14;12.13;;;5.75;;
38843;SDS011;24596;48.080;8.362;2023-02-28T04:31:42;12.40;;;5.50;;
38843;SDS011;24596;48.080;8.362;2023-02-28T04:34:07;11.27;;;5.40;;
38843;SDS011;24596;48.080;8.362;2023-02-28T04:36:33;11.02;;;5.75;;
38843;SDS011;24596;48.080;8.362;2023-02-28T04:38:58;9.18;;;4.95;;
38843;SDS011;24596;48.080;8.362;2023-02-28T04:41:23;11.77;;;5.57;;
38843;SDS011;24596;48.080;8.362;2023-02-28T04:43:48;9.65;;;5.15;;
38843;SDS011;24596;48.080;8.362;2023-02-28T04:46:14;13.80;;;6.05;;
38843;SDS011;24596;48.080;8.362;2023-02-28T04:48:39;11.77;;;5.60;;
38843;SDS011;24596;48.080;8.362;2023-02-28T04:51:08;9.98;;;5.72;;
38843;SDS011;24596;48.080;8.362;2023-02-28T04:53:35;10.90;;;5.07;;
38843;SDS011;24596;48.080;8.362;2023-02-28T04:56:00;10.20;;;5.68;;
38843;SDS011;24596;48.080;8.362;2023-02-28T04:58:25;10.75;;;6.00;;
38843;SDS011;24596;48.080;8.362;2023-02-28T05:00:51;11.85;;;5.68;;
38843;SDS011;24596;48.080;8.362;2023-02-28T05:03:17;10.20;;;5.40;;
38843;SDS011;24596;48.080;8.362;2023-02-28T05:05:42;10.32;;;5.90;;
38843;SDS011;24596;48.080;8.362;2023-02-28T05:08:07;10.65;;;5.35;;
38843;SDS011;24596;48.080;8.362;2023-02-28T05:10:33;11.40;;;5.78;;
38843;SDS011;24596;48.080;8.362;2023-02-28T05:12:58;11.32;;;5.97;;
38843;SDS011;24596;48.080;8.362;2023-02-28T05:15:24;11.27;;;5.43;;
38843;SDS011;24596;48.080;8.362;2023-02-28T05:17:49;11.32;;;6.10;;
38843;SDS011;24596;48.080;8.362;2023-02-28T05:20:14;9.70;;;5.20;;
38843;SDS011;24596;48.080;8.362;2023-02-28T05:22:40;11.93;;;5.90;;
38843;SDS011;24596;48.080;8.362;2023-02-28T05:25:05;10.65;;;5.32;;
38843;SDS011;24596;48.080;8.362;2023-02-28T05:27:31;8.52;;;5.30;;
38843;SDS011;24596;48.080;8.362;2023-02-28T05:29:57;11.43;;;6.18;;
38843;SDS011;24596;48.080;8.362;2023-02-28T05:32:22;10.40;;;6.05;;
38843;SDS011;24596;48.080;8.362;2023-02-28T05:34:47;10.48;;;5.65;;
38843;SDS011;24596;48.080;8.362;2023-02-28T05:37:13;11.90;;;5.88;;
38843;SDS011;24596;48.080;8.362;2023-02-28T05:39:38;12.82;;;6.05;;
38843;SDS011;24596;48.080;8.362;2023-02-28T05:42:04;11.57;;;5.88;;
38843;SDS011;24596;48.080;8.362;2023-02-28T05:44:29;12.18;;;5.97;;
38843;SDS011;24596;48.080;8.362;2023-02-28T05:46:55;10.07;;;5.82;;
38843;SDS011;24596;48.080;8.362;2023-02-28T05:49:20;9.70;;;6.00;;
38843;SDS011;24596;48.080;8.362;2023-02-28T05:51:45;13.20;;;6.43;;
38843;SDS011;24596;48.080;8.362;2023-02-28T05:54:10;10.02;;;5.80;;
38843;SDS011;24596;48.080;8.362;2023-02-28T05:56:36;11.02;;;5.55;;
38843;SDS011;24596;48.080;8.362;2023-02-28T05:59:04;13.07;;;5.82;;
38843;SDS011;24596;48.080;8.362;2023-02-28T06:01:34;10.07;;;6.25;;
38843;SDS011;24596;48.080;8.362;2023-02-28T06:04:00;13.02;;;6.70;;
38843;SDS011;24596;48.080;8.362;2023-02-28T06:06:25;12.95;;;6.20;;
38843;SDS011;24596;48.080;8.362;2023-02-28T06:08:51;10.90;;;6.28;;
38843;SDS011;24596;48.080;8.362;2023-02-28T06:11:16;13.15;;;6.22;;
38843;SDS011;24596;48.080;8.362;2023-02-28T06:13:41;11.43;;;6.28;;
38843;SDS011;24596;48.080;8.362;2023-02-28T06:16:07;12.18;;;5.78;;
38843;SDS011;24596;48.080;8.362;2023-02-28T06:18:33;9.73;;;5.78;;
38843;SDS011;24596;48.080;8.362;2023-02-28T06:20:58;10.73;;;6.88;;
38843;SDS011;24596;48.080;8.362;2023-02-28T06:23:23;13.93;;;6.97;;
38843;SDS011;24596;48.080;8.362;2023-02-28T06:25:48;10.70;;;6.30;;
38843;SDS011;24596;48.080;8.362;2023-02-28T06:28:14;15.82;;;6.45;;
38843;SDS011;24596;48.080;8.362;2023-02-28T06:30:39;11.52;;;6.78;;
38843;SDS011;24596;48.080;8.362;2023-02-28T06:33:05;12.43;;;6.65;;
38843;SDS011;24596;48.080;8.362;2023-02-28T06:35:30;15.07;;;7.85;;
38843;SDS011;24596;48.080;8.362;2023-02-28T06:37:55;14.57;;;6.88;;
38843;SDS011;24596;48.080;8.362;2023-02-28T06:40:21;12.95;;;7.63;;
38843;SDS011;24596;48.080;8.362;2023-02-28T06:42:46;15.52;;;7.57;;
38843;SDS011;24596;48.080;8.362;2023-02-28T06:45:11;15.05;;;6.97;;
38843;SDS011;24596;48.080;8.362;2023-02-28T06:47:37;14.05;;;7.07;;
38843;SDS011;24596;48.080;8.362;2023-02-28T06:50:03;13.48;;;7.15;;
38843;SDS011;24596;48.080;8.362;2023-02-28T06:52:32;19.35;;;8.60;;
38843;SDS011;24596;48.080;8.362;2023-02-28T06:55:01;8.80;;;5.00;;
38843;SDS011;24596;48.080;8.362;2023-02-28T06:57:30;13.18;;;8.00;;
38843;SDS011;24596;48.080;8.362;2023-02-28T07:00:03;15.85;;;7.45;;
38843;SDS011;24596;48.080;8.362;2023-02-28T07:02:30;12.93;;;8.13;;
38843;SDS011;24596;48.080;8.362;2023-02-28T07:04:56;14.02;;;7.85;;
38843;SDS011;24596;48.080;8.362;2023-02-28T07:07:22;13.27;;;7.25;;
38843;SDS011;24596;48.080;8.362;2023-02-28T07:09:47;14.32;;;7.80;;
38843;SDS011;24596;48.080;8.362;2023-02-28T07:12:12;15.13;;;8.07;;
38843;SDS011;24596;48.080;8.362;2023-02-28T07:14:37;19.40;;;8.50;;
38843;SDS011;24596;48.080;8.362;2023-02-28T07:17:03;14.23;;;8.90;;
38843;SDS011;24596;48.080;8.362;2023-02-28T07:19:28;15.60;;;8.02;;
38843;SDS011;24596;48.080;8.362;2023-02-28T07:21:53;17.88;;;8.35;;
38843;SDS011;24596;48.080;8.362;2023-02-28T07:24:19;16.38;;;8.70;;
38843;SDS011;24596;48.080;8.362;2023-02-28T07:26:44;16.90;;;9.00;;
38843;SDS011;24596;48.080;8.362;2023-02-28T07:29:09;16.92;;;9.02;;
38843;SDS011;24596;48.080;8.362;2023-02-28T07:31:35;15.85;;;8.20;;
38843;SDS011;24596;48.080;8.362;2023-02-28T07:34:00;14.90;;;8.45;;
38843;SDS011;24596;48.080;8.362;2023-02-28T07:36:25;14.55;;;8.07;;
38843;SDS011;24596;48.080;8.362;2023-02-28T07:38:50;15.80;;;8.98;;
38843;SDS011;24596;48.080;8.362;2023-02-28T07:41:16;15.27;;;8.30;;
38843;SDS011;24596;48.080;8.362;2023-02-28T07:43:42;14.68;;;8.57;;
38843;SDS011;24596;48.080;8.362;2023-02-28T07:46:09;16.48;;;8.63;;
38843;SDS011;24596;48.080;8.362;2023-02-28T07:48:34;16.80;;;9.00;;
38843;SDS011;24596;48.080;8.362;2023-02-28T07:51:00;19.38;;;9.10;;
38843;SDS011;24596;48.080;8.362;2023-02-28T07:53:25;19.45;;;9.48;;
38843;SDS011;24596;48.080;8.362;2023-02-28T07:55:50;17.02;;;8.40;;
38843;SDS011;24596;48.080;8.362;2023-02-28T07:58:16;15.13;;;9.35;;
38843;SDS011;24596;48.080;8.362;2023-02-28T08:00:41;19.17;;;10.10;;
38843;SDS011;24596;48.080;8.362;2023-02-28T08:03:08;18.30;;;9.45;;
38843;SDS011;24596;48.080;8.362;2023-02-28T08:05:37;15.77;;;9.55;;
38843;SDS011;24596;48.080;8.362;2023-02-28T08:08:03;16.25;;;8.60;;
38843;SDS011;24596;48.080;8.362;2023-02-28T08:10:28;19.83;;;10.13;;
38843;SDS011;24596;48.080;8.362;2023-02-28T08:12:53;17.90;;;10.43;;
38843;SDS011;24596;48.080;8.362;2023-02-28T08:15:18;21.08;;;10.55;;
38843;SDS011;24596;48.080;8.362;2023-02-28T08:17:44;16.60;;;9.50;;
38843;SDS011;24596;48.080;8.362;2023-02-28T08:20:09;15.30;;;9.27;;
38843;SDS011;24596;48.080;8.362;2023-02-28T08:22:35;17.33;;;8.73;;
38843;SDS011;24596;48.080;8.362;2023-02-28T08:25:00;16.20;;;8.93;;
38843;SDS011;24596;48.080;8.362;2023-02-28T08:27:25;15.02;;;9.00;;
38843;SDS011;24596;48.080;8.362;2023-02-28T08:29:51;17.83;;;9.68;;
38843;SDS011;24596;48.080;8.362;2023-02-28T08:32:16;19.52;;;9.98;;
38843;SDS011;24596;48.080;8.362;2023-02-28T08:34:41;17.27;;;9.32;;
38843;SDS011;24596;48.080;8.362;2023-02-28T08:37:06;18.90;;;9.05;;
38843;SDS011;24596;48.080;8.362;2023-02-28T08:39:35;18.35;;;9.88;;
38843;SDS011;24596;48.080;8.362;2023-02-28T08:42:01;19.02;;;9.52;;
38843;SDS011;24596;48.080;8.362;2023-02-28T08:44:26;17.33;;;9.20;;
38843;SDS011;24596;48.080;8.362;2023-02-28T08:46:52;19.00;;;10.32;;
38843;SDS011;24596;48.080;8.362;2023-02-28T08:49:17;17.58;;;10.32;;
38843;SDS011;24596;48.080;8.362;2023-02-28T08:51:43;20.05;;;9.88;;
38843;SDS011;24596;48.080;8.362;2023-02-28T08:54:08;19.17;;;9.68;;
38843;SDS011;24596;48.080;8.362;2023-02-28T08:56:37;18.70;;;9.82;;
38843;SDS011;24596;48.080;8.362;2023-02-28T08:59:02;18.80;;;9.80;;
38843;SDS011;24596;48.080;8.362;2023-02-28T09:01:28;19.10;;;10.23;;
38843;SDS011;24596;48.080;8.362;2023-02-28T09:03:54;16.77;;;9.32;;
38843;SDS011;24596;48.080;8.362;2023-02-28T09:06:20;18.45;;;11.00;;
38843;SDS011;24596;48.080;8.362;2023-02-28T09:08:46;16.92;;;9.20;;
38843;SDS011;24596;48.080;8.362;2023-02-28T09:11:11;19.10;;;9.38;;
38843;SDS011;24596;48.080;8.362;2023-02-28T09:13:37;17.58;;;11.85;;
38843;SDS011;24596;48.080;8.362;2023-02-28T09:16:03;16.30;;;10.10;;
38843;SDS011;24596;48.080;8.362;2023-02-28T09:18:29;18.77;;;11.15;;
38843;SDS011;24596;48.080;8.362;2023-02-28T09:20:54;17.65;;;10.32;;
38843;SDS011;24596;48.080;8.362;2023-02-28T09:23:20;18.67;;;9.38;;
38843;SDS011;24596;48.080;8.362;2023-02-28T09:25:50;18.08;;;9.80;;
38843;SDS011;24596;48.080;8.362;2023-02-28T09:28:15;16.13;;;10.00;;
38843;SDS011;24596;48.080;8.362;2023-02-28T09:30:42;17.15;;;9.50;;
38843;SDS011;24596;48.080;8.362;2023-02-28T09:33:07;17.67;;;10.90;;
38843;SDS011;24596;48.080;8.362;2023-02-28T09:35:32;19.35;;;9.95;;
38843;SDS011;24596;48.080;8.362;2023-02-28T09:37:58;16.70;;;8.93;;
38843;SDS011;24596;48.080;8.362;2023-02-28T09:40:24;18.58;;;9.98;;
38843;SDS011;24596;48.080;8.362;2023-02-28T09:42:50;16.42;;;9.52;;
38843;SDS011;24596;48.080;8.362;2023-02-28T09:45:38;17.88;;;9.85;;
38843;SDS011;24596;48.080;8.362;2023-02-28T09:48:03;18.73;;;10.45;;
38843;SDS011;24596;48.080;8.362;2023-02-28T09:50:39;16.60;;;9.52;;
38843;SDS011;24596;48.080;8.362;2023-02-28T09:53:11;16.98;;;9.18;;
38843;SDS011;24596;48.080;8.362;2023-02-28T09:55:39;16.13;;;9.02;;
38843;SDS011;24596;48.080;8.362;2023-02-28T09:58:05;21.75;;;9.40;;
38843;SDS011;24596;48.080;8.362;2023-02-28T10:00:39;17.45;;;9.45;;
38843;SDS011;24596;48.080;8.362;2023-02-28T10:03:28;21.30;;;10.18;;
38843;SDS011;24596;48.080;8.362;2023-02-28T10:08:25;20.27;;;9.50;;
38843;SDS011;24596;48.080;8.362;2023-02-28T10:10:53;16.23;;;8.80;;
38843;SDS011;24596;48.080;8.362;2023-02-28T10:13:31;17.50;;;9.68;;
38843;SDS011;24596;48.080;8.362;2023-02-28T10:16:33;17.08;;;9.38;;
38843;SDS011;24596;48.080;8.362;2023-02-28T10:18:54;18.33;;;10.20;;
38843;SDS011;24596;48.080;8.362;2023-02-28T10:21:35;18.08;;;9.77;;
38843;SDS011;24596;48.080;8.362;2023-02-28T10:24:15;16.77;;;9.38;;
38843;SDS011;24596;48.080;8.362;2023-02-28T10:26:43;19.27;;;10.63;;
38843;SDS011;24596;48.080;8.362;2023-02-28T10:29:10;19.80;;;10.48;;
38843;SDS011;24596;48.080;8.362;2023-02-28T10:31:35;20.77;;;10.90;;
38843;SDS011;24596;48.080;8.362;2023-02-28T10:34:00;17.38;;;10.48;;
38843;SDS011;24596;48.080;8.362;2023-02-28T10:36:26;20.33;;;10.68;;
38843;SDS011;24596;48.080;8.362;2023-02-28T10:38:53;18.85;;;10.40;;
38843;SDS011;24596;48.080;8.362;2023-02-28T10:41:29;18.42;;;10.23;;
38843;SDS011;24596;48.080;8.362;2023-02-28T10:44:12;18.63;;;10.13;;
38843;SDS011;24596;48.080;8.362;2023-02-28T10:46:39;17.08;;;10.25;;
38843;SDS011;24596;48.080;8.362;2023-02-28T10:49:05;17.45;;;9.80;;
38843;SDS011;24596;48.080;8.362;2023-02-28T10:51:34;20.30;;;10.65;;
38843;SDS011;24596;48.080;8.362;2023-02-28T10:54:01;17.08;;;10.30;;
38843;SDS011;24596;48.080;8.362;2023-02-28T10:56:27;18.02;;;9.93;;
38843;SDS011;24596;48.080;8.362;2023-02-28T10:59:03;17.27;;;9.60;;
38843;SDS011;24596;48.080;8.362;2023-02-28T11:03:57;17.38;;;10.05;;
38843;SDS011;24596;48.080;8.362;2023-02-28T11:06:32;20.95;;;10.25;;
38843;SDS011;24596;48.080;8.362;2023-02-28T11:08:58;18.23;;;9.60;;
38843;SDS011;24596;48.080;8.362;2023-02-28T11:11:25;20.23;;;10.05;;
38843;SDS011;24596;48.080;8.362;2023-02-28T11:13:52;23.88;;;10.98;;
38843;SDS011;24596;48.080;8.362;2023-02-28T11:16:18;20.63;;;11.50;;
38843;SDS011;24596;48.080;8.362;2023-02-28T11:18:49;21.80;;;12.23;;
38843;SDS011;24596;48.080;8.362;2023-02-28T11:21:16;19.00;;;10.77;;
38843;SDS011;24596;48.080;8.362;2023-02-28T11:23:42;23.92;;;11.25;;
38843;SDS011;24596;48.080;8.362;2023-02-28T11:26:07;19.65;;;11.55;;
38843;SDS011;24596;48.080;8.362;2023-02-28T11:28:39;22.33;;;13.15;;
38843;SDS011;24596;48.080;8.362;2023-02-28T11:31:14;23.17;;;11.90;;
38843;SDS011;24596;48.080;8.362;2023-02-28T11:33:40;21.45;;;12.05;;
38843;SDS011;24596;48.080;8.362;2023-02-28T11:36:18;21.50;;;11.32;;
38843;SDS011;24596;48.080;8.362;2023-02-28T11:38:43;19.90;;;10.15;;
38843;SDS011;24596;48.080;8.362;2023-02-28T11:49:33;21.77;;;12.23;;
38843;SDS011;24596;48.080;8.362;2023-02-28T12:05:21;22.17;;;10.43;;
38843;SDS011;24596;48.080;8.362;2023-02-28T12:07:56;22.55;;;11.63;;
38843;SDS011;24596;48.080;8.362;2023-02-28T12:10:26;19.15;;;11.52;;
38843;SDS011;24596;48.080;8.362;2023-02-28T12:18:14;20.88;;;11.05;;
38843;SDS011;24596;48.080;8.362;2023-02-28T12:20:59;21.33;;;11.40;;
38843;SDS011;24596;48.080;8.362;2023-02-28T12:26:14;24.42;;;12.55;;
38843;SDS011;24596;48.080;8.362;2023-02-28T12:28:42;19.70;;;10.63;;
38843;SDS011;24596;48.080;8.362;2023-02-28T12:33:36;19.45;;;10.80;;
38843;SDS011;24596;48.080;8.362;2023-02-28T12:36:14;23.23;;;12.27;;
38843;SDS011;24596;48.080;8.362;2023-02-28T12:38:47;19.23;;;11.32;;
38843;SDS011;24596;48.080;8.362;2023-02-28T12:41:15;18.45;;;11.52;;
38843;SDS011;24596;48.080;8.362;2023-02-28T12:43:46;17.98;;;10.88;;
38843;SDS011;24596;48.080;8.362;2023-02-28T12:46:15;19.52;;;11.40;;
38843;SDS011;24596;48.080;8.362;2023-02-28T12:48:50;20.38;;;11.25;;
38843;SDS011;24596;48.080;8.362;2023-02-28T12:51:17;17.58;;;10.85;;
38843;SDS011;24596;48.080;8.362;2023-02-28T12:58:41;19.88;;;11.50;;
38843;SDS011;24596;48.080;8.362;2023-02-28T13:10:52;18.08;;;10.35;;
38843;SDS011;24596;48.080;8.362;2023-02-28T13:13:24;18.45;;;10.35;;
38843;SDS011;24596;48.080;8.362;2023-02-28T13:16:08;22.58;;;13.15;;
38843;SDS011;24596;48.080;8.362;2023-02-28T13:18:44;19.65;;;11.20;;
38843;SDS011;24596;48.080;8.362;2023-02-28T13:21:32;21.48;;;11.60;;
38843;SDS011;24596;48.080;8.362;2023-02-28T13:23:57;24.80;;;13.05;;
38843;SDS011;24596;48.080;8.362;2023-02-28T13:34:24;26.92;;;14.57;;
38843;SDS011;24596;48.080;8.362;2023-02-28T13:36:49;23.05;;;13.50;;
38843;SDS011;24596;48.080;8.362;2023-02-28T13:40:00;20.17;;;12.18;;
38843;SDS011;24596;48.080;8.362;2023-02-28T13:42:22;20.23;;;12.20;;
38843;SDS011;24596;48.080;8.362;2023-02-28T13:45:19;21.58;;;12.02;;
38843;SDS011;24596;48.080;8.362;2023-02-28T13:52:43;20.05;;;11.48;;
38843;SDS011;24596;48.080;8.362;2023-02-28T13:55:24;22.27;;;12.48;;
38843;SDS011;24596;48.080;8.362;2023-02-28T14:03:06;20.92;;;12.95;;
38843;SDS011;24596;48.080;8.362;2023-02-28T14:05:34;21.25;;;12.50;;
38843;SDS011;24596;48.080;8.362;2023-02-28T14:08:04;24.40;;;12.35;;
38843;SDS011;24596;48.080;8.362;2023-02-28T14:10:31;19.85;;;11.27;;
38843;SDS011;24596;48.080;8.362;2023-02-28T14:12:58;22.33;;;12.10;;
38843;SDS011;24596;48.080;8.362;2023-02-28T14:18:24;21.60;;;12.38;;
38843;SDS011;24596;48.080;8.362;2023-02-28T14:20:52;19.50;;;11.88;;
38843;SDS011;24596;48.080;8.362;2023-02-28T14:23:21;18.95;;;11.65;;
38843;SDS011;24596;48.080;8.362;2023-02-28T14:31:34;19.67;;;12.07;;
38843;SDS011;24596;48.080;8.362;2023-02-28T14:34:17;19.20;;;10.98;;
38843;SDS011;24596;48.080;8.362;2023-02-28T14:36:45;18.30;;;11.18;;
38843;SDS011;24596;48.080;8.362;2023-02-28T14:39:16;19.75;;;11.30;;
38843;SDS011;24596;48.080;8.362;2023-02-28T14:41:42;18.48;;;11.30;;
38843;SDS011;24596;48.080;8.362;2023-02-28T14:44:21;17.63;;;10.98;;
38843;SDS011;24596;48.080;8.362;2023-02-28T14:47:11;20.73;;;11.98;;
38843;SDS011;24596;48.080;8.362;2023-02-28T14:49:36;21.30;;;12.10;;
38843;SDS011;24596;48.080;8.362;2023-02-28T14:54:31;19.17;;;12.13;;
38843;SDS011;24596;48.080;8.362;2023-02-28T14:56:56;50.72;;;23.33;;
38843;SDS011;24596;48.080;8.362;2023-02-28T14:59:26;24.63;;;12.48;;
38843;SDS011;24596;48.080;8.362;2023-02-28T15:01:51;21.55;;;12.70;;
38843;SDS011;24596;48.080;8.362;2023-02-28T15:04:26;21.23;;;12.50;;
38843;SDS011;24596;48.080;8.362;2023-02-28T15:07:10;22.90;;;12.45;;
38843;SDS011;24596;48.080;8.362;2023-02-28T15:09:35;20.27;;;12.15;;
38843;SDS011;24596;48.080;8.362;2023-02-28T15:12:00;16.33;;;10.60;;
38843;SDS011;24596;48.080;8.362;2023-02-28T15:14:26;15.70;;;10.63;;
38843;SDS011;24596;48.080;8.362;2023-02-28T15:16:55;18.90;;;11.52;;
38843;SDS011;24596;48.080;8.362;2023-02-28T15:21:48;26.42;;;15.40;;
38843;SDS011;24596;48.080;8.362;2023-02-28T15:24:24;23.10;;;13.68;;
38843;SDS011;24596;48.080;8.362;2023-02-28T15:26:59;21.25;;;11.90;;
38843;SDS011;24596;48.080;8.362;2023-02-28T15:29:25;18.13;;;10.63;;
38843;SDS011;24596;48.080;8.362;2023-02-28T15:32:05;17.27;;;10.40;;
38843;SDS011;24596;48.080;8.362;2023-02-28T15:34:41;16.38;;;10.43;;
38843;SDS011;24596;48.080;8.362;2023-02-28T15:37:24;16.42;;;9.93;;
38843;SDS011;24596;48.080;8.362;2023-02-28T15:39:50;14.93;;;9.27;;
38843;SDS011;24596;48.080;8.362;2023-02-28T15:42:19;16.48;;;10.00;;
38843;SDS011;24596;48.080;8.362;2023-02-28T15:44:44;14.80;;;9.30;;
38843;SDS011;24596;48.080;8.362;2023-02-28T15:47:17;14.95;;;9.38;;
38843;SDS011;24596;48.080;8.362;2023-02-28T15:49:54;23.10;;;16.25;;
38843;SDS011;24596;48.080;8.362;2023-02-28T15:52:31;15.98;;;9.93;;
38843;SDS011;24596;48.080;8.362;2023-02-28T15:54:57;17.75;;;9.57;;
38843;SDS011;24596;48.080;8.362;2023-02-28T15:57:24;14.10;;;10.00;;
38843;SDS011;24596;48.080;8.362;2023-02-28T15:59:56;17.25;;;10.02;;
38843;SDS011;24596;48.080;8.362;2023-02-28T16:02:33;15.45;;;10.20;;
38843;SDS011;24596;48.080;8.362;2023-02-28T16:07:33;19.08;;;10.90;;
38843;SDS011;24596;48.080;8.362;2023-02-28T16:09:59;29.50;;;18.38;;
38843;SDS011;24596;48.080;8.362;2023-02-28T16:12:25;17.40;;;11.52;;
38843;SDS011;24596;48.080;8.362;2023-02-28T16:14:52;13.95;;;9.98;;
38843;SDS011;24596;48.080;8.362;2023-02-28T16:17:22;12.75;;;9.63;;
38843;SDS011;24596;48.080;8.362;2023-02-28T16:19:48;17.60;;;10.10;;
38843;SDS011;24596;48.080;8.362;2023-02-28T16:22:13;19.70;;;12.52;;
38843;SDS011;24596;48.080;8.362;2023-02-28T16:24:38;20.08;;;14.18;;
38843;SDS011;24596;48.080;8.362;2023-02-28T16:27:05;18.42;;;14.35;;
38843;SDS011;24596;48.080;8.362;2023-02-28T16:29:31;15.65;;;12.35;;
38843;SDS011;24596;48.080;8.362;2023-02-28T16:31:56;14.70;;;10.52;;
38843;SDS011;24596;48.080;8.362;2023-02-28T16:34:22;16.75;;;11.25;;